Time;durP1;ratioP1;P1;durP2;ratioP2;P2;SDS_P1;SDS_P2;PMS_P1;PMS_P2;Temp;Humidity;BMP_temperature;BMP_pressure;BME280_temperature;BME280_humidity;BME280_pressure;Samples;Min_cycle;Max_cycle;Signal;HPM_P1;HPM_P2
2022/04/18 00:02:25;;;;;;;9.33;8.43;;;5.80;99.90;;;6.51;91.42;-19948.53;5030930;28;20659;-61
2022/04/18 00:04:54;;;;;;;9.20;8.30;;;5.80;99.90;;;6.44;91.64;-19946.16;5031660;28;20225;-62
2022/04/18 00:07:22;;;;;;;8.50;7.60;;;5.80;99.90;;;6.45;91.19;-19946.31;5031418;28;20231;-63
2022/04/18 00:09:50;;;;;;;10.70;8.53;;;5.80;99.90;;;6.41;91.25;-19945.13;5030878;28;20261;-60
2022/04/18 00:12:18;;;;;;;9.80;8.90;;;5.70;99.90;;;6.33;93.55;-19942.38;5031091;28;20205;-58
2022/04/18 00:14:47;;;;;;;11.10;10.00;;;5.70;99.90;;;6.30;95.60;-19941.19;5031747;28;20261;-60
2022/04/18 00:17:16;;;;;;;11.00;9.63;;;5.70;99.90;;;6.22;97.32;-19938.63;5030775;28;20322;-59
2022/04/18 00:19:44;;;;;;;11.33;9.67;;;5.70;99.90;;;6.22;98.47;-19938.47;5030781;28;20992;-61
2022/04/18 00:22:12;;;;;;;9.43;8.50;;;5.60;99.90;;;6.25;97.92;-19939.66;5031390;28;20238;-60
2022/04/18 00:24:41;;;;;;;9.97;8.80;;;5.60;99.90;;;6.28;94.99;-19940.50;5034303;28;20247;-58
2022/04/18 00:27:09;;;;;;;9.17;8.27;;;5.60;99.90;;;6.31;92.61;-19941.53;5035840;28;20294;-62
2022/04/18 00:29:37;;;;;;;8.80;7.90;;;5.60;99.90;;;6.27;92.25;-19940.34;5034428;28;20224;-62
2022/04/18 00:32:07;;;;;;;8.97;7.67;;;5.50;99.90;;;6.31;90.95;-19941.69;5035420;28;20826;-60
2022/04/18 00:34:36;;;;;;;7.50;6.73;;;5.60;99.90;;;6.27;90.71;-19940.16;5035276;28;20236;-58
2022/04/18 00:37:05;;;;;;;7.60;6.90;;;5.50;99.90;;;6.13;90.33;-19935.72;5034381;28;20779;-59
2022/04/18 00:39:33;;;;;;;7.47;6.70;;;5.50;99.90;;;6.08;92.04;-19933.84;5035109;28;20303;-59
2022/04/18 00:42:01;;;;;;;7.57;6.60;;;5.50;99.90;;;6.12;90.74;-19935.22;5035398;28;20259;-61
2022/04/18 00:44:32;;;;;;;7.53;6.63;;;5.50;99.90;;;6.27;89.58;-19940.16;5034199;28;20225;-58
2022/04/18 00:47:00;;;;;;;6.40;5.70;;;5.50;99.90;;;6.30;85.75;-19941.19;5034651;28;20236;-59
2022/04/18 00:49:28;;;;;;;6.67;6.07;;;5.60;99.90;;;6.37;84.61;-19943.75;5017543;28;20284;-61
2022/04/18 00:51:58;;;;;;;6.27;5.50;;;5.60;99.90;;;6.48;82.82;-19947.50;5015160;28;20281;-57
2022/04/18 00:54:27;;;;;;;6.13;5.57;;;5.70;99.90;;;6.51;83.28;-19948.53;5031144;28;20284;-58
2022/04/18 00:56:57;;;;;;;6.60;5.90;;;5.70;99.90;;;6.36;85.26;-19943.25;5034253;28;20205;-61
2022/04/18 00:59:27;;;;;;;5.80;5.13;;;5.70;99.90;;;6.25;86.25;-19939.47;5034504;28;20724;-62
2022/04/18 01:01:55;;;;;;;6.87;5.73;;;5.70;99.90;;;6.26;86.13;-19939.81;5033503;28;20225;-60
2022/04/18 01:04:24;;;;;;;6.23;5.67;;;5.70;99.90;;;6.31;84.19;-19941.53;5034638;28;20229;-58
2022/04/18 01:06:52;;;;;;;5.97;5.20;;;5.60;99.90;;;6.35;82.15;-19943.06;5034264;28;20279;-60
2022/04/18 01:09:23;;;;;;;7.20;5.70;;;5.70;99.90;;;6.26;82.42;-19939.81;5034088;28;20685;-58
2022/04/18 01:11:51;;;;;;;7.20;5.53;;;5.60;99.90;;;6.32;81.36;-19941.88;5034773;28;20224;-61
2022/04/18 01:14:19;;;;;;;6.53;5.70;;;5.70;99.90;;;6.33;81.33;-19942.38;5032617;28;20623;-61
2022/04/18 01:16:50;;;;;;;6.33;5.40;;;5.70;99.90;;;6.46;80.93;-19946.81;5034142;28;20258;-61
2022/04/18 01:19:18;;;;;;;6.90;5.50;;;5.80;99.90;;;6.39;79.93;-19944.44;5033648;28;20228;-60
2022/04/18 01:21:47;;;;;;;6.30;5.70;;;5.80;99.90;;;6.39;80.57;-19944.28;5034152;28;20231;-58
2022/04/18 01:29:47;;;;;;;6.30;5.70;;;5.70;99.90;;;6.24;81.62;-19939.16;5027128;28;20262;-59
2022/04/18 01:32:15;;;;;;;7.00;6.30;;;5.70;99.90;;;6.22;81.97;-19938.78;5033632;28;20235;-62
2022/04/18 01:34:43;;;;;;;8.13;6.40;;;5.70;99.90;;;6.19;82.20;-19937.59;5032476;28;20255;-61
2022/04/18 01:37:13;;;;;;;7.40;5.80;;;5.60;99.90;;;6.18;81.87;-19937.25;5033459;28;20237;-62
2022/04/18 01:39:43;;;;;;;8.33;5.97;;;5.60;99.90;;;6.14;82.41;-19936.06;5034261;28;20637;-59
2022/04/18 01:42:11;;;;;;;5.87;5.27;;;5.60;99.90;;;6.00;82.83;-19931.28;5032768;28;20253;-60
2022/04/18 01:44:39;;;;;;;5.70;5.20;;;5.60;99.90;;;6.00;83.16;-19931.13;5034197;28;20248;-61
2022/04/18 01:47:07;;;;;;;6.27;5.50;;;5.50;99.90;;;5.97;83.29;-19930.09;5033530;28;20407;-62
2022/04/18 01:49:35;;;;;;;6.40;5.77;;;5.50;99.90;;;6.05;83.62;-19932.81;5015238;28;20237;-62
2022/04/18 01:52:04;;;;;;;6.43;5.83;;;5.40;99.90;;;6.10;83.41;-19934.69;5020689;28;20250;-57
2022/04/18 01:54:34;;;;;;;6.30;5.77;;;5.40;99.90;;;6.07;83.77;-19933.50;5033658;28;20298;-59
2022/04/18 01:57:02;;;;;;;7.47;5.57;;;5.40;99.90;;;6.16;83.39;-19936.75;5014142;28;20758;-62
2022/04/18 01:59:30;;;;;;;6.33;5.60;;;5.40;99.90;;;6.38;81.27;-19943.94;5013560;28;20332;-63
2022/04/18 02:01:58;;;;;;;6.83;6.17;;;5.50;99.90;;;6.41;81.07;-19945.13;5023238;28;20232;-59
2022/04/18 02:04:26;;;;;;;7.43;6.23;;;5.60;99.90;;;6.18;82.27;-19937.44;5033487;28;20326;-59
2022/04/18 02:06:54;;;;;;;6.23;5.53;;;5.60;99.90;;;6.06;83.28;-19933.34;5032922;28;20707;-59
2022/04/18 02:09:22;;;;;;;8.50;5.90;;;5.50;99.90;;;5.95;83.50;-19929.41;5033815;28;20213;-59
2022/04/18 02:11:52;;;;;;;7.93;5.93;;;5.50;99.90;;;6.03;82.91;-19932.31;5033486;28;20299;-62
2022/04/18 02:14:20;;;;;;;7.10;5.90;;;5.40;99.90;;;5.96;83.38;-19929.75;5032768;28;20270;-62
2022/04/18 02:16:48;;;;;;;6.10;5.50;;;5.50;99.90;;;5.95;83.36;-19929.41;5032346;28;20232;-63
2022/04/18 02:19:16;;;;;;;7.53;6.00;;;5.40;99.90;;;5.94;83.67;-19929.06;5033248;28;20237;-58
2022/04/18 02:21:44;;;;;;;6.33;5.43;;;5.40;99.90;;;5.97;83.83;-19930.25;5032350;28;20850;-59
2022/04/18 02:24:14;;;;;;;6.43;5.70;;;5.40;99.90;;;6.14;83.15;-19935.88;5033176;28;20234;-61
2022/04/18 02:26:42;;;;;;;6.97;5.87;;;5.40;99.90;;;6.06;83.80;-19933.34;5033600;28;20207;-59
2022/04/18 02:29:12;;;;;;;7.00;6.30;;;5.40;99.90;;;6.23;81.82;-19938.97;5032053;28;20259;-59
2022/04/18 02:34:22;;;;;;;6.67;5.93;;;5.50;99.90;;;6.43;81.12;-19945.81;5032394;28;20252;-57
2022/04/18 02:36:50;;;;;;;7.47;5.43;;;5.50;99.90;;;6.46;80.92;-19946.81;5032396;28;20311;-58
2022/04/18 02:39:18;;;;;;;6.03;5.43;;;5.60;99.90;;;6.37;81.58;-19943.59;5032811;28;20664;-59
2022/04/18 02:41:46;;;;;;;7.07;5.63;;;5.60;99.90;;;6.53;80.65;-19949.06;5033022;28;20210;-58
2022/04/18 02:44:16;;;;;;;6.30;5.70;;;5.60;99.90;;;6.79;79.42;-19957.94;5032018;28;20381;-61
2022/04/18 02:46:44;;;;;;;6.80;6.10;;;5.70;99.90;;;6.79;79.24;-19958.13;5032348;28;20258;-60
2022/04/18 02:49:12;;;;;;;7.07;6.00;;;5.80;99.90;;;6.83;78.85;-19959.31;5030479;28;20289;-57
2022/04/18 02:51:40;;;;;;;7.60;6.17;;;5.80;99.90;;;6.60;80.02;-19951.44;5032637;28;20229;-62
2022/04/18 02:54:08;;;;;;;8.27;5.80;;;5.70;99.90;;;6.60;79.98;-19951.63;5032998;28;20281;-61
2022/04/18 02:56:36;;;;;;;7.63;6.23;;;5.70;99.90;;;6.35;81.12;-19943.06;5031998;28;20216;-62
2022/04/18 02:59:05;;;;;;;7.07;5.80;;;5.60;99.90;;;6.29;81.84;-19940.84;5032291;28;20305;-59
2022/04/18 03:01:34;;;;;;;7.93;6.80;;;5.50;99.90;;;6.46;80.96;-19946.66;5031197;28;20232;-59
2022/04/18 03:04:03;;;;;;;6.40;5.80;;;5.50;99.90;;;6.32;81.59;-19942.03;5032198;28;20249;-62
2022/04/18 03:06:31;;;;;;;6.37;5.77;;;5.50;99.90;;;6.25;82.43;-19939.66;5032361;28;20309;-63
2022/04/18 03:08:59;;;;;;;6.47;5.87;;;5.40;99.90;;;6.09;82.44;-19934.34;5032806;28;20208;-60
2022/04/18 03:11:27;;;;;;;7.23;6.00;;;5.40;99.90;;;5.94;84.13;-19929.06;5031653;28;20738;-59
2022/04/18 03:13:55;;;;;;;7.30;5.93;;;5.20;99.90;;;5.87;85.06;-19926.84;5031900;28;20232;-57
2022/04/18 03:16:23;;;;;;;5.90;5.30;;;5.10;99.90;;;5.94;85.01;-19929.22;5019946;28;20272;-58
2022/04/18 03:18:53;;;;;;;6.40;5.70;;;5.10;99.90;;;6.00;83.94;-19931.28;5031877;28;20230;-59
2022/04/18 03:21:21;;;;;;;7.70;6.17;;;5.10;99.90;;;5.95;84.46;-19929.41;5030984;28;20671;-59
2022/04/18 03:23:49;;;;;;;6.80;5.87;;;5.10;99.90;;;5.86;85.35;-19926.31;5032515;28;20261;-59
2022/04/18 03:26:18;;;;;;;6.43;5.80;;;5.10;99.90;;;5.83;86.22;-19925.47;5031008;28;20230;-58
2022/04/18 03:28:46;;;;;;;6.60;5.90;;;5.00;99.90;;;6.03;85.34;-19932.31;5031690;28;20255;-58
2022/04/18 03:31:14;;;;;;;8.77;6.27;;;5.00;99.90;;;5.96;85.97;-19929.91;5031597;28;20241;-60
2022/04/18 03:33:42;;;;;;;11.27;7.83;;;5.10;99.90;;;5.71;87.37;-19921.38;5031745;28;20227;-59
2022/04/18 03:41:44;;;;;;;7.13;6.43;;;4.90;99.90;;;5.74;87.45;-19922.38;5032264;28;20255;-63
2022/04/18 03:44:12;;;;;;;8.27;6.20;;;4.90;99.90;;;5.72;88.12;-19921.53;5030242;28;20295;-62
2022/04/18 03:46:40;;;;;;;7.23;6.33;;;4.90;99.90;;;5.76;88.12;-19922.91;5031663;28;20281;-64
2022/04/18 03:49:08;;;;;;;7.33;6.27;;;4.90;99.90;;;5.76;88.09;-19923.06;5017703;28;20779;-62
2022/04/18 03:51:37;;;;;;;6.97;6.07;;;4.90;99.90;;;6.00;86.76;-19931.28;5011756;28;20231;-61
2022/04/18 03:54:05;;;;;;;6.80;6.10;;;5.00;99.90;;;6.06;85.82;-19933.16;5018338;28;20654;-61
2022/04/18 03:56:34;;;;;;;7.33;5.80;;;5.10;99.90;;;5.86;87.07;-19926.31;5031153;28;20777;-62
2022/04/18 03:59:02;;;;;;;7.20;6.07;;;5.00;99.90;;;5.88;87.72;-19927.00;5033435;28;20233;-62
2022/04/18 04:01:29;;;;;;;6.63;5.97;;;5.00;99.90;;;5.73;88.86;-19921.88;5034567;28;20772;-61
2022/04/18 04:03:58;;;;;;;9.67;6.10;;;4.90;99.90;;;5.69;89.50;-19920.69;5035687;28;20234;-62
2022/04/18 04:06:26;;;;;;;7.53;6.67;;;4.90;99.90;;;5.66;90.03;-19919.47;5035115;28;20253;-58
2022/04/18 04:08:56;;;;;;;7.73;6.50;;;4.80;99.90;;;5.43;91.45;-19911.78;5036649;28;20198;-61
2022/04/18 04:11:24;;;;;;;7.23;5.90;;;4.80;99.90;;;5.31;93.29;-19907.69;5034864;28;20767;-64
2022/04/18 04:13:52;;;;;;;6.50;5.80;;;4.60;99.90;;;4.97;95.29;-19896.06;5035649;28;20307;-61
2022/04/18 04:16:21;;;;;;;6.87;5.73;;;4.50;99.90;;;4.93;96.90;-19894.88;5034457;28;20233;-62
2022/04/18 04:18:49;;;;;;;6.57;5.97;;;4.40;99.90;;;5.16;95.78;-19902.56;5035717;28;20276;-61
2022/04/18 04:21:17;;;;;;;7.23;6.17;;;4.40;99.90;;;5.47;92.87;-19913.16;5033102;28;20307;-61
2022/04/18 04:23:45;;;;;;;6.63;5.90;;;4.50;99.90;;;5.60;91.12;-19917.59;5016513;28;20262;-59
2022/04/18 04:26:15;;;;;;;6.80;5.80;;;4.60;99.90;;;5.68;90.32;-19920.34;5015212;28;20259;-62
2022/04/18 04:28:43;;;;;;;7.17;6.30;;;4.70;99.90;;;5.72;89.93;-19921.69;5030109;28;20227;-63
2022/04/18 04:31:11;;;;;;;6.47;5.50;;;4.70;99.90;;;5.73;88.89;-19922.03;5034938;28;20768;-61
2022/04/18 04:33:39;;;;;;;7.07;6.37;;;4.80;99.90;;;5.57;89.86;-19916.56;5034687;28;20231;-62
2022/04/18 04:36:08;;;;;;;6.30;5.70;;;4.80;99.90;;;5.69;89.46;-19920.50;5035583;28;20570;-62
2022/04/18 04:38:36;;;;;;;7.30;6.07;;;4.80;99.90;;;5.71;88.99;-19921.19;5034585;28;20288;-62
2022/04/18 04:41:04;;;;;;;7.17;6.30;;;4.80;99.90;;;5.57;89.54;-19916.56;5034672;28;20274;-61
2022/04/18 04:43:34;;;;;;;10.53;7.50;;;4.80;99.90;;;5.95;87.36;-19929.41;5035069;28;20685;-61
2022/04/18 04:46:05;;;;;;;9.47;7.77;;;4.90;99.90;;;5.91;87.49;-19928.03;5033705;28;20310;-61
2022/04/18 04:48:33;;;;;;;11.17;9.50;;;4.90;99.90;;;5.93;87.20;-19928.72;5025012;28;20313;-60
2022/04/18 04:51:01;;;;;;;12.67;9.87;;;5.00;99.90;;;5.80;88.33;-19924.28;5015291;28;20294;-60
2022/04/18 04:53:29;;;;;;;12.57;9.43;;;4.90;99.90;;;5.78;88.71;-19923.59;5033307;28;20246;-59
2022/04/18 04:55:57;;;;;;;13.77;10.60;;;4.90;99.90;;;5.73;88.87;-19922.03;5034744;28;20234;-61
2022/04/18 04:58:27;;;;;;;13.87;10.83;;;4.90;99.90;;;5.73;89.00;-19921.88;5033823;28;20325;-62
2022/04/18 05:00:57;;;;;;;13.20;10.57;;;4.90;99.90;;;5.75;89.95;-19922.56;5033917;28;20748;-61
2022/04/18 05:03:26;;;;;;;13.80;11.07;;;4.90;99.90;;;5.79;89.06;-19924.09;5033812;28;20657;-62
2022/04/18 05:05:54;;;;;;;12.90;10.47;;;4.90;99.90;;;5.70;88.93;-19920.84;5035295;28;20222;-60
2022/04/18 05:08:23;;;;;;;12.80;9.90;;;5.00;99.90;;;5.60;90.83;-19917.44;5034169;28;20230;-60
2022/04/18 05:10:54;;;;;;;11.63;9.83;;;5.00;99.90;;;5.78;89.79;-19923.75;5034031;28;20675;-59
2022/04/18 05:13:22;;;;;;;10.93;9.07;;;5.10;99.90;;;5.88;89.85;-19927.00;5032858;28;20323;-62
2022/04/18 05:15:51;;;;;;;10.30;8.50;;;5.20;99.90;;;6.20;87.53;-19937.94;5034273;28;20229;-61
2022/04/18 05:18:20;;;;;;;10.53;8.50;;;5.30;99.90;;;6.32;87.14;-19942.03;5034360;28;20242;-61
2022/04/18 05:20:49;;;;;;;9.80;7.93;;;5.50;99.90;;;6.44;86.55;-19946.16;5032745;28;20277;-62
2022/04/18 05:23:19;;;;;;;9.37;7.67;;;5.60;99.90;;;6.80;82.89;-19958.28;5034498;28;20289;-62
2022/04/18 05:25:47;;;;;;;8.70;7.60;;;5.90;99.90;;;6.92;83.52;-19962.56;5033370;28;20237;-62
2022/04/18 05:28:15;;;;;;;9.43;7.67;;;6.10;99.90;;;7.13;81.77;-19969.56;5034135;28;20251;-61
2022/04/18 05:30:43;;;;;;;7.70;6.90;;;6.20;99.90;;;7.32;79.79;-19976.22;5023325;28;20282;-61
2022/04/18 05:33:11;;;;;;;8.40;7.57;;;6.40;99.90;;;7.62;80.12;-19986.13;5014415;28;20210;-61
2022/04/18 05:35:41;;;;;;;10.00;7.20;;;6.60;99.90;;;7.56;79.47;-19984.25;5022245;28;20680;-62
2022/04/18 05:38:09;;;;;;;7.97;6.23;;;6.60;99.90;;;7.78;77.48;-19991.59;5033363;28;20256;-62
2022/04/18 05:40:37;;;;;;;8.40;6.80;;;6.80;99.90;;;7.99;76.41;-19998.94;5033237;28;20746;-59
2022/04/18 05:43:06;;;;;;;8.97;6.63;;;7.00;99.90;;;8.06;75.49;-20001.16;5031261;28;20307;-64
2022/04/18 05:45:39;;;;;;;7.50;6.77;;;7.10;99.90;;;8.13;74.85;-20003.56;5033092;28;20327;-62
2022/04/18 05:48:08;;;;;;;6.63;5.80;;;7.20;99.90;;;8.15;73.60;-20004.25;5032379;28;20583;-61
2022/04/18 05:50:36;;;;;;;6.97;5.80;;;7.40;99.90;;;8.20;74.37;-20006.13;5032256;28;20225;-59
2022/04/18 05:53:06;;;;;;;6.73;6.03;;;7.40;99.90;;;8.21;72.60;-20006.28;5032770;28;20279;-60
2022/04/18 05:55:37;;;;;;;7.07;6.10;;;7.40;99.90;;;8.14;72.63;-20004.06;5031529;28;20253;-59
2022/04/18 05:58:05;;;;;;;5.83;5.17;;;7.40;99.90;;;8.20;72.93;-20005.97;5032931;28;20240;-60
2022/04/18 06:00:34;;;;;;;7.13;5.53;;;7.50;99.90;;;8.18;72.56;-20005.28;5020990;28;20229;-59
2022/04/18 06:03:02;;;;;;;5.93;5.30;;;7.40;99.90;;;8.19;72.42;-20005.59;5013560;28;20740;-61
2022/04/18 06:05:32;;;;;;;8.00;5.33;;;7.40;99.90;;;8.37;72.28;-20011.94;5013020;28;20309;-62
2022/04/18 06:08:00;;;;;;;7.03;5.73;;;7.60;99.90;;;8.46;72.40;-20014.84;5012595;28;20257;-61
2022/04/18 06:10:30;;;;;;;6.57;5.23;;;7.70;99.90;;;8.63;70.96;-20020.81;5012781;28;20444;-62
2022/04/18 06:12:58;;;;;;;7.63;5.80;;;7.70;99.90;;;8.74;70.43;-20024.41;5016401;28;20229;-60
2022/04/18 06:15:26;;;;;;;7.10;5.80;;;7.80;99.90;;;8.65;70.35;-20021.34;5032713;28;20185;-59
2022/04/18 06:17:54;;;;;;;6.00;5.27;;;7.80;99.90;;;8.64;70.73;-20021.16;5033500;28;20248;-59
2022/04/18 06:20:22;;;;;;;6.77;5.27;;;7.90;99.90;;;8.72;71.47;-20023.72;5031599;28;20287;-61
2022/04/18 06:22:50;;;;;;;7.50;5.70;;;7.90;99.90;;;8.99;69.65;-20032.78;5031643;28;20309;-61
2022/04/18 06:25:19;;;;;;;7.93;5.70;;;8.10;99.90;;;8.85;70.34;-20028.16;5031883;28;20792;-61
2022/04/18 06:27:48;;;;;;;6.13;5.50;;;8.10;99.90;;;9.06;69.29;-20035.34;5022992;28;20293;-63
2022/04/18 06:30:16;;;;;;;6.57;5.50;;;8.10;99.90;;;8.98;70.49;-20032.44;5021040;28;20197;-63
2022/04/18 06:32:46;;;;;;;6.47;5.83;;;8.20;99.90;;;9.07;70.55;-20035.69;5032690;28;20289;-61
2022/04/18 06:35:15;;;;;;;6.57;5.90;;;8.20;99.90;;;-141.84;54.53;17400.16;5029562;28;20236;-59
2022/04/18 06:37:43;;;;;;;6.90;6.20;;;8.30;99.90;;;-141.84;53.75;17367.66;5032016;28;20578;-59
2022/04/18 06:40:11;;;;;;;7.67;6.33;;;8.40;99.90;;;-141.84;53.19;17416.41;5031669;28;20976;-59
2022/04/18 06:42:39;;;;;;;7.83;6.27;;;8.30;99.90;;;-141.84;52.63;17444.84;5012291;28;20244;-60
2022/04/18 06:45:09;;;;;;;7.27;6.07;;;8.20;99.90;;;-141.84;53.32;17418.44;5024236;28;20244;-61
2022/04/18 06:47:37;;;;;;;7.67;5.90;;;8.10;99.90;;;-141.84;53.06;17452.97;5030235;28;20628;-60
2022/04/18 06:50:10;;;;;;;7.60;6.17;;;8.10;99.90;;;-141.84;53.30;17404.22;5012270;28;20313;-59
2022/04/18 06:52:39;;;;;;;8.67;5.83;;;8.00;99.90;;;-141.84;52.84;17408.28;5023758;28;20291;-59
2022/04/18 06:55:09;;;;;;;7.97;6.07;;;8.10;99.90;;;-141.84;53.39;17408.28;5029258;28;20773;-58
2022/04/18 06:57:36;;;;;;;7.50;6.30;;;8.20;99.90;;;-141.84;52.23;17424.53;5031953;28;20309;-60
2022/04/18 07:00:06;;;;;;;7.13;5.70;;;8.30;99.90;;;-141.84;52.71;17414.38;5031922;28;20226;-59
2022/04/18 07:02:36;;;;;;;6.83;5.60;;;8.40;99.90;;;-141.84;52.86;17424.53;5032298;28;20213;-56
2022/04/18 07:05:05;;;;;;;7.00;5.80;;;8.40;99.90;;;-141.84;53.46;17430.63;5032153;28;20226;-58
2022/04/18 07:07:33;;;;;;;7.47;6.10;;;8.50;99.90;;;-141.84;53.59;17387.97;5031169;28;20253;-59
2022/04/18 07:10:00;;;;;;;7.20;6.27;;;8.50;99.90;;;-141.84;52.77;17390.00;5031934;28;20268;-59
2022/04/18 07:12:28;;;;;;;7.13;5.73;;;8.60;99.90;;;-141.84;52.65;17428.59;5030867;28;20206;-60
2022/04/18 07:14:59;;;;;;;6.83;5.80;;;8.50;99.90;;;-141.84;52.60;17440.78;5032632;28;20270;-60
2022/04/18 07:17:27;;;;;;;6.57;5.87;;;8.60;99.90;;;-141.84;52.33;17448.91;5031137;28;20230;-59
2022/04/18 07:19:56;;;;;;;7.73;6.13;;;8.70;99.90;;;-141.84;50.31;17469.19;5031402;28;20701;-61
2022/04/18 07:22:24;;;;;;;7.30;5.57;;;8.90;99.90;;;-141.84;50.68;17475.28;5028703;28;20226;-62
2022/04/18 07:24:52;;;;;;;9.50;6.50;;;8.90;99.90;;;-141.84;49.36;17534.19;5031817;28;20228;-63
2022/04/18 07:27:20;;;;;;;6.83;5.73;;;9.20;99.90;;;-141.84;47.90;17584.97;5031049;28;20202;-61
2022/04/18 07:29:48;;;;;;;5.80;5.20;;;9.60;99.90;;;-141.84;47.20;17603.25;5033062;28;20298;-62
2022/04/18 07:32:16;;;;;;;6.20;5.57;;;10.10;99.90;;;-141.84;47.28;17597.16;5017985;28;20217;-63
2022/04/18 07:34:47;;;;;;;7.60;5.73;;;10.40;99.90;;;-141.84;47.80;17597.16;5029276;28;20222;-61
2022/04/18 07:37:21;;;;;;;6.23;5.57;;;10.40;99.90;;;-141.84;47.11;17631.69;5029601;28;20677;-61
2022/04/18 07:39:49;;;;;;;5.97;5.37;;;10.50;99.90;;;-141.84;46.99;17633.72;5030387;28;20221;-61
2022/04/18 07:42:19;;;;;;;7.43;5.90;;;10.30;99.90;;;-141.84;47.41;17609.34;5031539;28;20201;-61
2022/04/18 07:44:47;;;;;;;7.53;5.83;;;10.20;99.90;;;-141.84;47.17;17607.31;5030909;28;20759;-61
2022/04/18 07:47:15;;;;;;;8.40;6.53;;;10.10;99.90;;;-141.84;47.65;17576.84;5031158;28;20609;-62
2022/04/18 07:49:42;;;;;;;6.20;5.60;;;10.10;99.90;;;-141.84;47.46;17621.53;5029827;28;20237;-61
2022/04/18 07:52:12;;;;;;;7.07;6.13;;;10.10;99.90;;;-141.84;47.59;17587.00;5030374;28;20220;-62
2022/04/18 07:54:44;;;;;;;7.37;6.47;;;10.10;99.90;;;-141.84;47.95;17591.06;5031374;28;20226;-63
2022/04/18 07:57:12;;;;;;;6.90;6.17;;;10.10;99.90;;;-141.84;48.64;17574.81;5030823;28;20194;-61
2022/04/18 07:59:40;;;;;;;6.43;5.73;;;10.20;99.90;;;-141.84;48.20;17558.56;5031642;28;20297;-61
2022/04/18 08:02:09;;;;;;;6.23;5.63;;;10.20;99.90;;;-141.84;48.09;17587.00;5031404;28;20230;-62
2022/04/18 08:04:39;;;;;;;6.13;5.40;;;10.40;99.90;;;-141.84;45.44;17652.00;5030223;28;20226;-61
2022/04/18 08:07:07;;;;;;;6.43;5.40;;;10.40;99.90;;;-141.84;43.86;17694.66;5030682;28;20225;-62
2022/04/18 08:09:35;;;;;;;6.13;5.37;;;10.50;99.90;;;-141.84;44.64;17700.75;5030402;28;20301;-62
2022/04/18 08:12:06;;;;;;;6.87;5.77;;;10.50;99.90;;;-141.84;44.92;17684.50;5031607;28;20627;-62
2022/04/18 08:14:34;;;;;;;6.13;5.53;;;10.50;99.90;;;-141.84;45.47;17668.25;5031350;28;20281;-61
2022/04/18 08:17:02;;;;;;;5.93;5.33;;;10.50;99.90;;;-141.84;44.69;17708.88;5030899;28;20226;-62
2022/04/18 08:19:30;;;;;;;5.93;4.90;;;10.60;99.90;;;-141.84;42.11;17779.97;5030457;28;20225;-62
2022/04/18 08:21:58;;;;;;;7.37;5.20;;;10.70;99.90;;;-141.84;40.50;17834.81;5010817;28;20233;-61
2022/04/18 08:24:26;;;;;;;7.13;5.17;;;10.80;99.90;;;-141.84;41.72;17779.97;5011202;28;20293;-61
2022/04/18 08:26:54;;;;;;;6.90;5.73;;;10.80;99.90;;;-141.84;43.05;17790.13;5029960;28;20225;-62
2022/04/18 08:29:24;;;;;;;7.97;6.23;;;10.90;99.90;;;-141.84;44.12;17800.28;5030724;28;20233;-63
2022/04/18 08:31:52;;;;;;;7.73;5.50;;;10.80;99.90;;;-141.84;44.54;17708.88;5028850;28;20234;-61
2022/04/18 08:34:20;;;;;;;7.37;6.07;;;10.90;99.90;;;-141.84;43.42;17696.69;5029974;28;20245;-61
2022/04/18 08:36:48;;;;;;;8.90;6.23;;;11.10;99.90;;;-141.84;43.04;17790.13;5028879;28;20222;-61
2022/04/18 08:39:16;;;;;;;6.73;5.73;;;11.20;99.90;;;-141.84;43.27;17765.75;5029855;28;20206;-61
2022/04/18 08:41:47;;;;;;;6.57;5.13;;;11.10;99.90;;;-141.84;42.48;17812.47;5031510;28;20198;-61
2022/04/18 08:44:19;;;;;;;6.57;5.53;;;11.10;99.90;;;-141.84;42.81;17788.09;5030807;28;20230;-61
2022/04/18 08:46:48;;;;;;;6.23;5.13;;;11.20;99.90;;;-141.84;42.51;17788.09;5033451;28;20226;-62
2022/04/18 08:52:43;;;;;;;5.80;4.80;;;11.40;99.90;;;-141.84;40.69;17883.56;5013522;28;20308;-61
2022/04/18 08:55:03;;;;;;;7.47;4.80;;;11.50;99.90;;;-141.84;40.24;17881.53;5012819;28;20250;-61
2022/04/18 08:57:31;;;;;;;5.13;4.57;;;11.30;99.90;;;-141.84;40.55;17859.19;5013721;28;20299;-62
2022/04/18 08:59:59;;;;;;;6.43;4.93;;;11.30;99.90;;;-141.84;40.57;17861.22;5014832;28;20199;-62
2022/04/18 09:02:28;;;;;;;6.07;4.83;;;11.40;99.90;;;-141.84;39.90;17871.38;5023877;28;20222;-60
2022/04/18 09:04:57;;;;;;;6.13;4.47;;;11.40;99.90;;;-141.84;40.47;17857.16;5034181;28;20232;-61
2022/04/18 09:07:25;;;;;;;6.77;5.00;;;11.40;99.90;;;-141.84;40.12;17867.31;5033725;28;20230;-61
2022/04/18 09:09:55;;;;;;;5.67;5.00;;;11.40;99.90;;;-141.84;40.48;17877.47;5018894;28;20710;-60
2022/04/18 09:12:28;;;;;;;6.30;5.10;;;11.40;99.90;;;-141.84;40.67;17879.50;5014197;28;20183;-61
2022/04/18 09:14:57;;;;;;;6.77;4.90;;;11.40;99.90;;;-141.84;40.91;17855.13;5027377;28;20240;-62
2022/04/18 09:17:32;;;;;;;6.70;5.30;;;11.50;99.90;;;-141.84;40.39;17881.53;5022620;28;20218;-62
2022/04/18 09:20:09;;;;;;;6.30;5.40;;;11.70;99.90;;;-141.84;40.15;17905.91;5024765;28;20250;-62
2022/04/18 09:22:45;;;;;;;5.83;4.97;;;11.70;99.90;;;-141.84;39.96;17891.69;5024756;28;20225;-61
2022/04/18 09:25:15;;;;;;;5.50;4.63;;;11.80;99.90;;;-141.84;39.85;17914.03;5023326;28;20248;-62
2022/04/18 09:27:55;;;;;;;7.03;5.27;;;11.80;99.90;;;-141.84;39.76;17912.00;5024651;28;20226;-61
2022/04/18 09:30:24;;;;;;;6.13;4.83;;;11.90;99.90;;;-141.84;39.32;17916.06;5022280;28;20191;-60
2022/04/18 09:33:04;;;;;;;5.83;4.43;;;11.90;99.90;;;-141.84;37.79;18001.41;5025316;28;20198;-62
2022/04/18 09:35:31;;;;;;;5.20;3.90;;;12.00;99.90;;;-141.84;36.74;18060.31;5022568;28;20224;-62
2022/04/18 09:38:02;;;;;;;4.43;3.90;;;12.10;99.90;;;-141.84;36.87;18062.34;5024796;28;20222;-62
2022/04/18 09:40:32;;;;;;;4.50;3.70;;;12.10;99.90;;;-141.84;36.92;18037.97;5024776;28;20226;-62
2022/04/18 09:43:00;;;;;;;4.83;3.43;;;12.20;99.90;;;-141.84;35.19;18139.53;5021549;28;20638;-62
2022/04/18 09:45:33;;;;;;;4.07;2.60;;;12.10;99.90;;;-141.84;32.24;18257.38;5023604;28;20226;-62
2022/04/18 09:48:02;;;;;;;2.17;1.97;;;12.10;99.90;;;-141.84;30.57;18363.00;5025549;28;20306;-62
2022/04/18 09:53:18;;;;;;;3.67;2.50;;;12.20;99.90;;;-141.84;31.17;18373.16;5021050;28;20724;-62
2022/04/18 09:55:47;;;;;;;3.27;2.40;;;12.30;99.90;;;-141.84;31.92;18310.19;5020410;28;20252;-62
2022/04/18 09:58:15;;;;;;;3.63;2.50;;;12.30;99.90;;;-141.84;32.30;18316.28;5020610;28;20242;-62
2022/04/18 10:01:06;;;;;;;4.97;2.97;;;12.30;99.90;;;-141.84;33.19;18267.53;5020465;28;20218;-63
2022/04/18 10:03:38;;;;;;;3.13;2.43;;;12.40;99.90;;;-141.84;32.55;18293.94;5020693;28;20226;-60
2022/04/18 10:06:07;;;;;;;4.23;2.83;;;12.40;99.90;;;-141.84;32.80;18310.19;5021230;28;20186;-62
2022/04/18 10:08:36;;;;;;;4.33;3.00;;;12.60;99.90;;;-141.84;31.45;18371.13;5020642;28;20230;-62
2022/04/18 10:11:07;;;;;;;3.17;2.80;;;12.60;99.90;;;-141.84;31.36;18350.81;5020065;28;20408;-63
2022/04/18 10:13:37;;;;;;;4.70;3.27;;;12.60;99.90;;;-141.84;32.40;18318.31;5020875;28;20298;-62
2022/04/18 10:16:07;;;;;;;3.60;3.10;;;12.60;99.90;;;-141.84;32.54;18332.53;5023407;28;20223;-62
2022/04/18 10:18:46;;;;;;;3.30;2.60;;;12.60;99.90;;;-141.84;31.27;18383.31;5024475;28;20230;-62
2022/04/18 10:21:26;;;;;;;4.67;2.90;;;12.60;99.90;;;-141.84;31.90;18334.56;5023681;28;20278;-62
2022/04/18 10:24:52;;;;;;;3.30;2.77;;;12.50;99.90;;;-141.84;31.37;18373.16;5024140;28;20273;-61
2022/04/18 10:27:58;;;;;;;4.13;3.03;;;12.60;99.90;;;-141.84;32.88;18310.19;5020016;28;20222;-62
2022/04/18 10:30:27;;;;;;;3.80;2.97;;;12.60;99.90;;;-141.84;32.82;18342.69;5023455;28;20321;-62
2022/04/18 10:32:57;;;;;;;4.73;3.10;;;12.80;99.90;;;-141.84;32.68;18371.13;5024284;28;20290;-62
2022/04/18 10:35:26;;;;;;;4.27;3.27;;;12.80;99.90;;;-141.84;32.98;18332.53;5022991;28;20218;-63
2022/04/18 10:37:55;;;;;;;3.30;3.00;;;12.80;99.90;;;-141.84;33.51;18314.25;5022790;28;20218;-62
2022/04/18 10:40:25;;;;;;;3.37;3.07;;;13.00;99.90;;;-141.84;33.36;18348.78;5022640;28;20240;-61
2022/04/18 10:42:55;;;;;;;4.33;3.17;;;13.10;99.90;;;-141.84;32.58;18360.97;5021276;28;20597;-62
2022/04/18 10:45:24;;;;;;;3.30;2.90;;;13.20;99.90;;;-141.84;31.92;18405.66;5020871;28;20191;-63
2022/04/18 10:48:10;;;;;;;3.83;3.20;;;13.20;99.90;;;-141.84;32.91;18369.09;5022535;28;20210;-62